sensor_id;sensor_type;location;lat;lon;timestamp;temperature;humidity
75738;DHT22;64356;45.638;13.764;2023-04-24T00:02:23;21.10;55.70
75738;DHT22;64356;45.638;13.764;2023-04-24T00:04:49;21.10;55.70
75738;DHT22;64356;45.638;13.764;2023-04-24T00:07:15;21.10;55.70
75738;DHT22;64356;45.638;13.764;2023-04-24T00:09:45;21.10;55.70
75738;DHT22;64356;45.638;13.764;2023-04-24T00:12:11;21.10;55.70
75738;DHT22;64356;45.638;13.764;2023-04-24T00:14:37;21.10;55.70
75738;DHT22;64356;45.638;13.764;2023-04-24T00:17:03;21.10;55.70
75738;DHT22;64356;45.638;13.764;2023-04-24T00:19:29;21.10;55.70
75738;DHT22;64356;45.638;13.764;2023-04-24T00:21:55;21.10;55.70
75738;DHT22;64356;45.638;13.764;2023-04-24T00:24:20;21.10;55.70
75738;DHT22;64356;45.638;13.764;2023-04-24T00:26:47;21.10;55.70
75738;DHT22;64356;45.638;13.764;2023-04-24T00:29:12;21.10;55.80
75738;DHT22;64356;45.638;13.764;2023-04-24T00:31:38;21.10;55.70
75738;DHT22;64356;45.638;13.764;2023-04-24T00:34:04;21.10;55.80
75738;DHT22;64356;45.638;13.764;2023-04-24T00:36:31;21.10;55.80
75738;DHT22;64356;45.638;13.764;2023-04-24T00:38:58;21.10;55.80
75738;DHT22;64356;45.638;13.764;2023-04-24T00:41:24;21.10;55.80
75738;DHT22;64356;45.638;13.764;2023-04-24T00:43:51;21.10;55.70
75738;DHT22;64356;45.638;13.764;2023-04-24T00:46:17;21.10;55.80
75738;DHT22;64356;45.638;13.764;2023-04-24T00:48:43;21.10;55.70
75738;DHT22;64356;45.638;13.764;2023-04-24T00:51:09;21.10;55.70
75738;DHT22;64356;45.638;13.764;2023-04-24T00:53:35;21.10;55.70
75738;DHT22;64356;45.638;13.764;2023-04-24T00:56:02;21.10;55.70
75738;DHT22;64356;45.638;13.764;2023-04-24T00:58:28;21.10;55.70
75738;DHT22;64356;45.638;13.764;2023-04-24T01:00:54;21.10;55.70
75738;DHT22;64356;45.638;13.764;2023-04-24T01:03:25;21.10;55.70
75738;DHT22;64356;45.638;13.764;2023-04-24T01:05:52;21.10;55.70
75738;DHT22;64356;45.638;13.764;2023-04-24T01:08:22;21.10;55.70
75738;DHT22;64356;45.638;13.764;2023-04-24T01:10:53;21.10;55.70
75738;DHT22;64356;45.638;13.764;2023-04-24T01:13:21;21.10;55.70
75738;DHT22;64356;45.638;13.764;2023-04-24T01:15:47;21.10;55.80
75738;DHT22;64356;45.638;13.764;2023-04-24T01:18:13;21.10;55.80
75738;DHT22;64356;45.638;13.764;2023-04-24T01:20:42;21.10;55.70
75738;DHT22;64356;45.638;13.764;2023-04-24T01:23:09;21.10;55.80
75738;DHT22;64356;45.638;13.764;2023-04-24T01:25:36;21.10;55.80
75738;DHT22;64356;45.638;13.764;2023-04-24T01:28:02;21.10;55.80
75738;DHT22;64356;45.638;13.764;2023-04-24T01:30:30;21.10;55.80
75738;DHT22;64356;45.638;13.764;2023-04-24T01:32:56;21.10;55.80
75738;DHT22;64356;45.638;13.764;2023-04-24T01:35:22;21.10;55.70
75738;DHT22;64356;45.638;13.764;2023-04-24T01:37:47;21.10;55.70
75738;DHT22;64356;45.638;13.764;2023-04-24T01:40:13;21.10;55.70
75738;DHT22;64356;45.638;13.764;2023-04-24T01:42:41;21.10;55.60
75738;DHT22;64356;45.638;13.764;2023-04-24T01:45:09;21.10;55.60
75738;DHT22;64356;45.638;13.764;2023-04-24T01:47:36;21.10;55.60
75738;DHT22;64356;45.638;13.764;2023-04-24T01:50:02;21.10;55.60
75738;DHT22;64356;45.638;13.764;2023-04-24T01:52:28;21.10;55.60
75738;DHT22;64356;45.638;13.764;2023-04-24T01:54:56;21.10;55.60
75738;DHT22;64356;45.638;13.764;2023-04-24T01:57:24;21.10;55.60
75738;DHT22;64356;45.638;13.764;2023-04-24T01:59:51;21.10;55.60
75738;DHT22;64356;45.638;13.764;2023-04-24T02:02:16;21.10;55.50
75738;DHT22;64356;45.638;13.764;2023-04-24T02:04:42;21.10;55.60
75738;DHT22;64356;45.638;13.764;2023-04-24T02:07:08;21.10;55.60
75738;DHT22;64356;45.638;13.764;2023-04-24T02:09:33;21.10;55.60
75738;DHT22;64356;45.638;13.764;2023-04-24T02:11:59;21.10;55.60
75738;DHT22;64356;45.638;13.764;2023-04-24T02:14:26;21.10;55.60
75738;DHT22;64356;45.638;13.764;2023-04-24T02:16:51;21.10;55.50
75738;DHT22;64356;45.638;13.764;2023-04-24T02:19:18;21.10;55.50
75738;DHT22;64356;45.638;13.764;2023-04-24T02:21:44;21.10;55.40
75738;DHT22;64356;45.638;13.764;2023-04-24T02:24:10;21.10;55.40
75738;DHT22;64356;45.638;13.764;2023-04-24T02:26:36;21.10;55.40
75738;DHT22;64356;45.638;13.764;2023-04-24T02:29:01;21.10;55.40
75738;DHT22;64356;45.638;13.764;2023-04-24T02:31:27;21.10;55.40
75738;DHT22;64356;45.638;13.764;2023-04-24T02:33:53;21.10;55.30
75738;DHT22;64356;45.638;13.764;2023-04-24T02:36:19;21.10;55.30
75738;DHT22;64356;45.638;13.764;2023-04-24T02:38:44;21.10;55.40
75738;DHT22;64356;45.638;13.764;2023-04-24T02:41:10;21.10;55.30
75738;DHT22;64356;45.638;13.764;2023-04-24T02:43:36;21.10;55.30
75738;DHT22;64356;45.638;13.764;2023-04-24T02:46:02;21.10;55.40
75738;DHT22;64356;45.638;13.764;2023-04-24T02:48:28;21.00;55.30
75738;DHT22;64356;45.638;13.764;2023-04-24T02:50:54;21.10;55.40
75738;DHT22;64356;45.638;13.764;2023-04-24T02:53:19;21.10;55.40
75738;DHT22;64356;45.638;13.764;2023-04-24T02:55:45;21.10;55.40
75738;DHT22;64356;45.638;13.764;2023-04-24T02:58:11;21.10;55.40
75738;DHT22;64356;45.638;13.764;2023-04-24T03:00:38;21.10;55.40
75738;DHT22;64356;45.638;13.764;2023-04-24T03:03:05;21.00;55.40
75738;DHT22;64356;45.638;13.764;2023-04-24T03:05:31;21.10;55.40
75738;DHT22;64356;45.638;13.764;2023-04-24T03:07:56;21.10;55.40
75738;DHT22;64356;45.638;13.764;2023-04-24T03:10:22;21.10;55.50
75738;DHT22;64356;45.638;13.764;2023-04-24T03:12:48;21.10;55.50
75738;DHT22;64356;45.638;13.764;2023-04-24T03:15:15;21.10;55.50
75738;DHT22;64356;45.638;13.764;2023-04-24T03:17:40;21.10;55.50
75738;DHT22;64356;45.638;13.764;2023-04-24T03:20:07;21.10;55.50
75738;DHT22;64356;45.638;13.764;2023-04-24T03:22:34;21.00;55.50
75738;DHT22;64356;45.638;13.764;2023-04-24T03:25:00;21.00;55.50
75738;DHT22;64356;45.638;13.764;2023-04-24T03:27:26;21.00;55.50
75738;DHT22;64356;45.638;13.764;2023-04-24T03:29:51;21.00;55.50
75738;DHT22;64356;45.638;13.764;2023-04-24T03:32:23;21.00;56.10
75738;DHT22;64356;45.638;13.764;2023-04-24T03:34:49;21.00;55.50
75738;DHT22;64356;45.638;13.764;2023-04-24T03:37:16;21.10;55.50
75738;DHT22;64356;45.638;13.764;2023-04-24T03:39:42;21.10;55.50
75738;DHT22;64356;45.638;13.764;2023-04-24T03:42:07;21.00;55.40
75738;DHT22;64356;45.638;13.764;2023-04-24T03:44:34;21.00;55.40
75738;DHT22;64356;45.638;13.764;2023-04-24T03:47:00;21.10;55.50
75738;DHT22;64356;45.638;13.764;2023-04-24T03:49:26;21.00;55.40
75738;DHT22;64356;45.638;13.764;2023-04-24T03:51:52;21.00;55.40
75738;DHT22;64356;45.638;13.764;2023-04-24T03:54:18;21.00;55.40
75738;DHT22;64356;45.638;13.764;2023-04-24T03:56:44;21.00;55.40
75738;DHT22;64356;45.638;13.764;2023-04-24T03:59:10;21.10;55.40
75738;DHT22;64356;45.638;13.764;2023-04-24T04:01:36;21.00;55.40
75738;DHT22;64356;45.638;13.764;2023-04-24T04:04:05;21.00;55.30
75738;DHT22;64356;45.638;13.764;2023-04-24T04:06:31;21.10;55.40
75738;DHT22;64356;45.638;13.764;2023-04-24T04:08:58;21.00;55.40
75738;DHT22;64356;45.638;13.764;2023-04-24T04:11:24;21.10;55.40
75738;DHT22;64356;45.638;13.764;2023-04-24T04:13:50;21.00;55.30
75738;DHT22;64356;45.638;13.764;2023-04-24T04:16:16;21.00;55.30
75738;DHT22;64356;45.638;13.764;2023-04-24T04:18:43;21.00;55.40
75738;DHT22;64356;45.638;13.764;2023-04-24T04:21:09;21.00;55.40
75738;DHT22;64356;45.638;13.764;2023-04-24T04:23:35;21.00;55.30
75738;DHT22;64356;45.638;13.764;2023-04-24T04:26:01;21.10;55.50
75738;DHT22;64356;45.638;13.764;2023-04-24T04:28:27;21.00;55.50
75738;DHT22;64356;45.638;13.764;2023-04-24T04:30:53;21.00;55.40
75738;DHT22;64356;45.638;13.764;2023-04-24T04:33:23;21.00;55.50
75738;DHT22;64356;45.638;13.764;2023-04-24T04:35:50;21.00;55.50
75738;DHT22;64356;45.638;13.764;2023-04-24T04:38:18;21.10;55.60
75738;DHT22;64356;45.638;13.764;2023-04-24T04:40:44;21.10;55.50
75738;DHT22;64356;45.638;13.764;2023-04-24T04:43:11;21.00;55.50
75738;DHT22;64356;45.638;13.764;2023-04-24T04:45:37;21.00;55.50
75738;DHT22;64356;45.638;13.764;2023-04-24T04:48:04;21.00;55.50
75738;DHT22;64356;45.638;13.764;2023-04-24T04:50:32;21.00;55.50
75738;DHT22;64356;45.638;13.764;2023-04-24T04:52:58;21.00;55.40
75738;DHT22;64356;45.638;13.764;2023-04-24T04:55:24;21.00;55.40
75738;DHT22;64356;45.638;13.764;2023-04-24T04:57:50;21.00;55.50
75738;DHT22;64356;45.638;13.764;2023-04-24T05:00:16;21.00;55.50
75738;DHT22;64356;45.638;13.764;2023-04-24T05:02:41;21.00;55.50
75738;DHT22;64356;45.638;13.764;2023-04-24T05:05:07;21.00;55.50
75738;DHT22;64356;45.638;13.764;2023-04-24T05:07:33;21.00;55.50
75738;DHT22;64356;45.638;13.764;2023-04-24T05:09:59;21.00;55.50
75738;DHT22;64356;45.638;13.764;2023-04-24T05:12:25;21.00;55.50
75738;DHT22;64356;45.638;13.764;2023-04-24T05:14:51;21.00;55.50
75738;DHT22;64356;45.638;13.764;2023-04-24T05:17:17;21.00;55.40
75738;DHT22;64356;45.638;13.764;2023-04-24T05:19:42;21.00;55.40
75738;DHT22;64356;45.638;13.764;2023-04-24T05:22:08;21.00;55.40
75738;DHT22;64356;45.638;13.764;2023-04-24T05:24:35;21.00;55.40
75738;DHT22;64356;45.638;13.764;2023-04-24T05:27:02;21.00;55.50
75738;DHT22;64356;45.638;13.764;2023-04-24T05:29:30;21.00;55.50
75738;DHT22;64356;45.638;13.764;2023-04-24T05:31:59;21.00;55.50
75738;DHT22;64356;45.638;13.764;2023-04-24T05:34:26;21.00;55.50
75738;DHT22;64356;45.638;13.764;2023-04-24T05:36:51;21.00;55.50
75738;DHT22;64356;45.638;13.764;2023-04-24T05:39:17;21.00;55.60
75738;DHT22;64356;45.638;13.764;2023-04-24T05:41:43;21.00;55.50
75738;DHT22;64356;45.638;13.764;2023-04-24T05:44:09;21.00;55.60
75738;DHT22;64356;45.638;13.764;2023-04-24T05:46:35;21.00;55.60
75738;DHT22;64356;45.638;13.764;2023-04-24T05:49:01;21.00;55.60
75738;DHT22;64356;45.638;13.764;2023-04-24T05:51:27;21.00;55.60
75738;DHT22;64356;45.638;13.764;2023-04-24T05:53:53;21.00;55.60
75738;DHT22;64356;45.638;13.764;2023-04-24T05:56:19;21.00;55.60
75738;DHT22;64356;45.638;13.764;2023-04-24T05:58:46;21.00;55.60
75738;DHT22;64356;45.638;13.764;2023-04-24T06:01:12;21.00;55.60
75738;DHT22;64356;45.638;13.764;2023-04-24T06:03:40;21.00;55.70
75738;DHT22;64356;45.638;13.764;2023-04-24T06:06:07;21.00;55.70
75738;DHT22;64356;45.638;13.764;2023-04-24T06:08:32;21.00;55.70
75738;DHT22;64356;45.638;13.764;2023-04-24T06:10:58;21.00;55.70
75738;DHT22;64356;45.638;13.764;2023-04-24T06:13:24;21.00;55.70
75738;DHT22;64356;45.638;13.764;2023-04-24T06:15:50;21.00;55.80
75738;DHT22;64356;45.638;13.764;2023-04-24T06:18:16;21.00;55.80
75738;DHT22;64356;45.638;13.764;2023-04-24T06:20:42;21.00;55.80
75738;DHT22;64356;45.638;13.764;2023-04-24T06:23:08;21.00;55.80
75738;DHT22;64356;45.638;13.764;2023-04-24T06:25:33;21.00;55.80
75738;DHT22;64356;45.638;13.764;2023-04-24T06:27:59;21.00;55.90
75738;DHT22;64356;45.638;13.764;2023-04-24T06:30:25;21.00;56.00
75738;DHT22;64356;45.638;13.764;2023-04-24T06:32:51;21.00;56.00
75738;DHT22;64356;45.638;13.764;2023-04-24T06:35:16;21.00;56.10
75738;DHT22;64356;45.638;13.764;2023-04-24T06:37:43;21.00;56.10
75738;DHT22;64356;45.638;13.764;2023-04-24T06:40:09;21.00;56.10
75738;DHT22;64356;45.638;13.764;2023-04-24T06:42:35;21.00;56.10
75738;DHT22;64356;45.638;13.764;2023-04-24T06:45:02;21.00;56.50
75738;DHT22;64356;45.638;13.764;2023-04-24T06:47:27;21.00;56.10
75738;DHT22;64356;45.638;13.764;2023-04-24T06:49:53;21.00;56.10
75738;DHT22;64356;45.638;13.764;2023-04-24T06:52:20;21.00;56.00
75738;DHT22;64356;45.638;13.764;2023-04-24T06:54:46;21.00;56.00
75738;DHT22;64356;45.638;13.764;2023-04-24T06:57:12;21.00;55.90
75738;DHT22;64356;45.638;13.764;2023-04-24T06:59:38;21.00;55.90
75738;DHT22;64356;45.638;13.764;2023-04-24T07:02:03;21.00;55.80
75738;DHT22;64356;45.638;13.764;2023-04-24T07:04:30;21.00;55.90
75738;DHT22;64356;45.638;13.764;2023-04-24T07:06:56;21.00;55.80
75738;DHT22;64356;45.638;13.764;2023-04-24T07:09:24;21.00;55.80
75738;DHT22;64356;45.638;13.764;2023-04-24T07:11:53;21.00;55.70
75738;DHT22;64356;45.638;13.764;2023-04-24T07:14:20;21.00;55.70
75738;DHT22;64356;45.638;13.764;2023-04-24T07:16:46;21.00;55.70
75738;DHT22;64356;45.638;13.764;2023-04-24T07:19:13;21.00;55.70
75738;DHT22;64356;45.638;13.764;2023-04-24T07:21:39;21.00;55.80
75738;DHT22;64356;45.638;13.764;2023-04-24T07:24:05;21.00;55.90
75738;DHT22;64356;45.638;13.764;2023-04-24T07:26:34;21.00;55.90
75738;DHT22;64356;45.638;13.764;2023-04-24T07:29:00;21.00;56.00
75738;DHT22;64356;45.638;13.764;2023-04-24T07:31:26;21.00;56.00
75738;DHT22;64356;45.638;13.764;2023-04-24T07:33:51;21.00;56.00
75738;DHT22;64356;45.638;13.764;2023-04-24T07:36:17;21.00;56.00
75738;DHT22;64356;45.638;13.764;2023-04-24T07:38:45;21.00;56.10
75738;DHT22;64356;45.638;13.764;2023-04-24T07:41:14;21.00;56.10
75738;DHT22;64356;45.638;13.764;2023-04-24T07:43:40;21.00;56.10
75738;DHT22;64356;45.638;13.764;2023-04-24T07:46:07;21.00;56.10
75738;DHT22;64356;45.638;13.764;2023-04-24T07:48:33;21.00;56.10
75738;DHT22;64356;45.638;13.764;2023-04-24T07:50:58;21.00;56.10
75738;DHT22;64356;45.638;13.764;2023-04-24T07:53:24;21.00;56.20
75738;DHT22;64356;45.638;13.764;2023-04-24T07:55:50;21.00;56.30
75738;DHT22;64356;45.638;13.764;2023-04-24T07:58:16;21.00;56.20
75738;DHT22;64356;45.638;13.764;2023-04-24T08:00:41;21.00;56.10
75738;DHT22;64356;45.638;13.764;2023-04-24T08:03:07;21.00;56.20
75738;DHT22;64356;45.638;13.764;2023-04-24T08:05:33;21.00;56.70
75738;DHT22;64356;45.638;13.764;2023-04-24T08:07:58;21.00;56.10
75738;DHT22;64356;45.638;13.764;2023-04-24T08:10:24;21.00;56.20
75738;DHT22;64356;45.638;13.764;2023-04-24T08:12:51;21.00;56.20
75738;DHT22;64356;45.638;13.764;2023-04-24T08:15:16;21.00;56.20
75738;DHT22;64356;45.638;13.764;2023-04-24T08:17:42;21.00;56.20
75738;DHT22;64356;45.638;13.764;2023-04-24T08:20:09;21.00;56.20
75738;DHT22;64356;45.638;13.764;2023-04-24T08:22:42;21.00;56.20
75738;DHT22;64356;45.638;13.764;2023-04-24T08:25:09;21.00;56.30
75738;DHT22;64356;45.638;13.764;2023-04-24T08:27:35;21.00;56.30
75738;DHT22;64356;45.638;13.764;2023-04-24T08:30:06;21.00;56.30
75738;DHT22;64356;45.638;13.764;2023-04-24T08:32:32;21.00;56.20
75738;DHT22;64356;45.638;13.764;2023-04-24T08:34:58;21.00;56.20
75738;DHT22;64356;45.638;13.764;2023-04-24T08:37:26;21.00;56.30
75738;DHT22;64356;45.638;13.764;2023-04-24T08:39:52;21.00;56.30
75738;DHT22;64356;45.638;13.764;2023-04-24T08:42:19;21.00;56.30
75738;DHT22;64356;45.638;13.764;2023-04-24T08:44:45;21.00;56.30
75738;DHT22;64356;45.638;13.764;2023-04-24T08:47:11;21.00;56.30
75738;DHT22;64356;45.638;13.764;2023-04-24T08:49:38;21.00;56.30
75738;DHT22;64356;45.638;13.764;2023-04-24T08:52:07;21.00;56.30
75738;DHT22;64356;45.638;13.764;2023-04-24T08:54:36;21.00;56.40
75738;DHT22;64356;45.638;13.764;2023-04-24T08:57:02;21.00;56.40
75738;DHT22;64356;45.638;13.764;2023-04-24T08:59:32;21.00;56.40
75738;DHT22;64356;45.638;13.764;2023-04-24T09:02:00;20.90;56.40
75738;DHT22;64356;45.638;13.764;2023-04-24T09:04:26;21.00;56.50
75738;DHT22;64356;45.638;13.764;2023-04-24T09:06:57;20.90;56.50
75738;DHT22;64356;45.638;13.764;2023-04-24T09:09:24;20.90;56.50
75738;DHT22;64356;45.638;13.764;2023-04-24T09:11:51;20.90;56.60
75738;DHT22;64356;45.638;13.764;2023-04-24T09:14:19;21.00;56.70
75738;DHT22;64356;45.638;13.764;2023-04-24T09:16:46;21.00;56.70
75738;DHT22;64356;45.638;13.764;2023-04-24T09:19:12;20.90;56.60
75738;DHT22;64356;45.638;13.764;2023-04-24T09:21:38;21.00;56.70
75738;DHT22;64356;45.638;13.764;2023-04-24T09:24:14;20.90;56.60
75738;DHT22;64356;45.638;13.764;2023-04-24T09:26:43;21.00;56.70
75738;DHT22;64356;45.638;13.764;2023-04-24T09:29:17;20.90;56.80
75738;DHT22;64356;45.638;13.764;2023-04-24T09:31:44;21.00;56.80
75738;DHT22;64356;45.638;13.764;2023-04-24T09:34:11;21.00;56.90
75738;DHT22;64356;45.638;13.764;2023-04-24T09:36:41;21.00;56.90
75738;DHT22;64356;45.638;13.764;2023-04-24T09:39:12;20.90;56.90
75738;DHT22;64356;45.638;13.764;2023-04-24T09:41:52;21.00;56.90
75738;DHT22;64356;45.638;13.764;2023-04-24T09:44:23;20.90;56.80
75738;DHT22;64356;45.638;13.764;2023-04-24T09:46:54;20.90;56.70
75738;DHT22;64356;45.638;13.764;2023-04-24T09:49:23;20.90;56.70
75738;DHT22;64356;45.638;13.764;2023-04-24T09:51:50;21.00;56.70
75738;DHT22;64356;45.638;13.764;2023-04-24T09:54:17;21.00;56.70
75738;DHT22;64356;45.638;13.764;2023-04-24T09:56:51;20.90;56.70
75738;DHT22;64356;45.638;13.764;2023-04-24T09:59:19;21.00;56.80
75738;DHT22;64356;45.638;13.764;2023-04-24T10:01:45;21.00;56.80
75738;DHT22;64356;45.638;13.764;2023-04-24T10:04:24;21.00;56.80
75738;DHT22;64356;45.638;13.764;2023-04-24T10:06:51;20.90;56.80
75738;DHT22;64356;45.638;13.764;2023-04-24T10:09:26;21.00;56.90
75738;DHT22;64356;45.638;13.764;2023-04-24T10:11:53;20.90;56.80
75738;DHT22;64356;45.638;13.764;2023-04-24T10:14:23;21.00;57.00
75738;DHT22;64356;45.638;13.764;2023-04-24T10:16:50;21.00;57.10
75738;DHT22;64356;45.638;13.764;2023-04-24T10:19:18;21.00;57.10
75738;DHT22;64356;45.638;13.764;2023-04-24T10:21:46;21.00;57.10
75738;DHT22;64356;45.638;13.764;2023-04-24T10:24:14;21.00;57.10
75738;DHT22;64356;45.638;13.764;2023-04-24T10:26:40;21.00;57.10
75738;DHT22;64356;45.638;13.764;2023-04-24T10:29:06;21.00;57.20
75738;DHT22;64356;45.638;13.764;2023-04-24T10:31:36;21.00;57.20
75738;DHT22;64356;45.638;13.764;2023-04-24T10:34:05;21.00;57.10
75738;DHT22;64356;45.638;13.764;2023-04-24T10:36:35;21.00;57.10
75738;DHT22;64356;45.638;13.764;2023-04-24T10:39:05;21.00;57.00
75738;DHT22;64356;45.638;13.764;2023-04-24T10:41:32;21.00;57.00
75738;DHT22;64356;45.638;13.764;2023-04-24T10:44:14;21.00;57.00
75738;DHT22;64356;45.638;13.764;2023-04-24T10:46:45;21.00;57.00
75738;DHT22;64356;45.638;13.764;2023-04-24T10:49:11;20.90;56.90
75738;DHT22;64356;45.638;13.764;2023-04-24T10:51:53;21.00;57.00
75738;DHT22;64356;45.638;13.764;2023-04-24T10:54:35;21.00;57.00
75738;DHT22;64356;45.638;13.764;2023-04-24T10:59:46;20.90;57.00
75738;DHT22;64356;45.638;13.764;2023-04-24T11:02:14;21.00;57.00
75738;DHT22;64356;45.638;13.764;2023-04-24T11:04:40;20.90;57.00
75738;DHT22;64356;45.638;13.764;2023-04-24T11:07:09;21.00;57.10
75738;DHT22;64356;45.638;13.764;2023-04-24T11:09:35;20.90;57.00
75738;DHT22;64356;45.638;13.764;2023-04-24T11:12:10;21.00;57.10
75738;DHT22;64356;45.638;13.764;2023-04-24T11:17:29;21.00;57.10
75738;DHT22;64356;45.638;13.764;2023-04-24T11:20:17;21.00;57.00
75738;DHT22;64356;45.638;13.764;2023-04-24T11:22:43;21.00;57.00
75738;DHT22;64356;45.638;13.764;2023-04-24T11:25:09;21.00;57.00
75738;DHT22;64356;45.638;13.764;2023-04-24T11:27:44;21.00;57.00
75738;DHT22;64356;45.638;13.764;2023-04-24T11:30:18;21.00;57.00
75738;DHT22;64356;45.638;13.764;2023-04-24T11:32:47;21.00;57.00
75738;DHT22;64356;45.638;13.764;2023-04-24T11:35:16;21.00;57.00
75738;DHT22;64356;45.638;13.764;2023-04-24T11:37:44;21.00;57.00
75738;DHT22;64356;45.638;13.764;2023-04-24T11:40:13;20.90;57.00
75738;DHT22;64356;45.638;13.764;2023-04-24T11:42:45;21.00;57.00
75738;DHT22;64356;45.638;13.764;2023-04-24T11:45:16;21.00;57.10
75738;DHT22;64356;45.638;13.764;2023-04-24T11:47:43;21.00;57.10
75738;DHT22;64356;45.638;13.764;2023-04-24T11:50:12;20.90;57.10
75738;DHT22;64356;45.638;13.764;2023-04-24T11:52:41;20.90;57.20
75738;DHT22;64356;45.638;13.764;2023-04-24T11:55:12;20.90;57.20
75738;DHT22;64356;45.638;13.764;2023-04-24T11:57:53;20.90;57.20
75738;DHT22;64356;45.638;13.764;2023-04-24T12:00:20;21.00;57.30
75738;DHT22;64356;45.638;13.764;2023-04-24T12:02:46;21.00;57.20
75738;DHT22;64356;45.638;13.764;2023-04-24T12:05:26;21.00;57.20
75738;DHT22;64356;45.638;13.764;2023-04-24T12:07:53;20.90;57.10
75738;DHT22;64356;45.638;13.764;2023-04-24T12:10:26;20.90;57.10
75738;DHT22;64356;45.638;13.764;2023-04-24T12:12:53;21.00;57.20
75738;DHT22;64356;45.638;13.764;2023-04-24T12:15:21;21.00;57.30
75738;DHT22;64356;45.638;13.764;2023-04-24T12:17:47;20.90;57.30
75738;DHT22;64356;45.638;13.764;2023-04-24T12:20:14;20.90;57.40
75738;DHT22;64356;45.638;13.764;2023-04-24T12:22:44;20.90;57.40
75738;DHT22;64356;45.638;13.764;2023-04-24T12:25:17;20.90;57.40
75738;DHT22;64356;45.638;13.764;2023-04-24T12:27:51;20.90;57.40
75738;DHT22;64356;45.638;13.764;2023-04-24T12:30:17;20.90;57.40
75738;DHT22;64356;45.638;13.764;2023-04-24T12:32:48;20.90;57.40
75738;DHT22;64356;45.638;13.764;2023-04-24T12:35:20;20.90;57.40
75738;DHT22;64356;45.638;13.764;2023-04-24T12:37:46;20.90;57.40
75738;DHT22;64356;45.638;13.764;2023-04-24T12:40:12;20.90;57.40
75738;DHT22;64356;45.638;13.764;2023-04-24T12:42:46;20.90;57.40
75738;DHT22;64356;45.638;13.764;2023-04-24T12:45:12;20.90;58.00
75738;DHT22;64356;45.638;13.764;2023-04-24T12:47:39;20.90;57.50
75738;DHT22;64356;45.638;13.764;2023-04-24T12:50:06;20.90;57.60
75738;DHT22;64356;45.638;13.764;2023-04-24T12:52:32;20.90;57.60
75738;DHT22;64356;45.638;13.764;2023-04-24T12:55:00;20.90;57.60
75738;DHT22;64356;45.638;13.764;2023-04-24T12:57:27;20.90;57.60
75738;DHT22;64356;45.638;13.764;2023-04-24T12:59:57;20.90;57.50
75738;DHT22;64356;45.638;13.764;2023-04-24T13:02:27;20.90;57.60
75738;DHT22;64356;45.638;13.764;2023-04-24T13:04:54;20.90;57.60
75738;DHT22;64356;45.638;13.764;2023-04-24T13:07:20;20.90;57.60
75738;DHT22;64356;45.638;13.764;2023-04-24T13:09:48;20.90;57.60
75738;DHT22;64356;45.638;13.764;2023-04-24T13:12:14;20.90;57.70
75738;DHT22;64356;45.638;13.764;2023-04-24T13:14:40;20.90;57.70
75738;DHT22;64356;45.638;13.764;2023-04-24T13:17:05;20.90;57.70
75738;DHT22;64356;45.638;13.764;2023-04-24T13:19:36;20.90;57.70
75738;DHT22;64356;45.638;13.764;2023-04-24T13:22:03;20.90;57.60
75738;DHT22;64356;45.638;13.764;2023-04-24T13:24:29;20.90;57.50
75738;DHT22;64356;45.638;13.764;2023-04-24T13:26:56;20.90;57.50
75738;DHT22;64356;45.638;13.764;2023-04-24T13:29:22;20.90;57.50
75738;DHT22;64356;45.638;13.764;2023-04-24T13:31:50;20.90;57.50
75738;DHT22;64356;45.638;13.764;2023-04-24T13:34:17;20.90;57.60
75738;DHT22;64356;45.638;13.764;2023-04-24T13:36:43;20.90;57.50
75738;DHT22;64356;45.638;13.764;2023-04-24T13:39:09;20.90;57.50
75738;DHT22;64356;45.638;13.764;2023-04-24T13:41:35;20.90;57.50
75738;DHT22;64356;45.638;13.764;2023-04-24T13:44:02;20.90;57.50
75738;DHT22;64356;45.638;13.764;2023-04-24T13:46:28;21.00;57.50
75738;DHT22;64356;45.638;13.764;2023-04-24T13:48:54;21.00;57.50
75738;DHT22;64356;45.638;13.764;2023-04-24T13:51:19;21.00;57.30
75738;DHT22;64356;45.638;13.764;2023-04-24T13:53:45;20.90;57.30
75738;DHT22;64356;45.638;13.764;2023-04-24T13:56:11;21.00;57.40
75738;DHT22;64356;45.638;13.764;2023-04-24T13:58:38;21.00;57.30
75738;DHT22;64356;45.638;13.764;2023-04-24T14:01:04;21.00;57.20
75738;DHT22;64356;45.638;13.764;2023-04-24T14:03:30;21.00;57.10
75738;DHT22;64356;45.638;13.764;2023-04-24T14:05:56;21.00;57.10
75738;DHT22;64356;45.638;13.764;2023-04-24T14:08:21;20.90;57.10
75738;DHT22;64356;45.638;13.764;2023-04-24T14:10:47;21.00;57.60
75738;DHT22;64356;45.638;13.764;2023-04-24T14:13:13;21.00;57.00
75738;DHT22;64356;45.638;13.764;2023-04-24T14:15:39;20.90;57.00
75738;DHT22;64356;45.638;13.764;2023-04-24T14:18:05;21.00;57.10
75738;DHT22;64356;45.638;13.764;2023-04-24T14:20:30;21.00;57.10
75738;DHT22;64356;45.638;13.764;2023-04-24T14:22:56;20.90;57.10
75738;DHT22;64356;45.638;13.764;2023-04-24T14:25:24;20.90;57.20
75738;DHT22;64356;45.638;13.764;2023-04-24T14:27:50;20.90;57.20
75738;DHT22;64356;45.638;13.764;2023-04-24T14:30:16;20.90;57.20
75738;DHT22;64356;45.638;13.764;2023-04-24T14:32:42;20.90;57.10
75738;DHT22;64356;45.638;13.764;2023-04-24T14:35:08;20.90;57.20
75738;DHT22;64356;45.638;13.764;2023-04-24T14:37:34;20.90;57.20
75738;DHT22;64356;45.638;13.764;2023-04-24T14:40:01;20.90;57.20
75738;DHT22;64356;45.638;13.764;2023-04-24T14:42:27;20.90;57.20
75738;DHT22;64356;45.638;13.764;2023-04-24T14:44:54;20.90;57.30
75738;DHT22;64356;45.638;13.764;2023-04-24T14:47:20;20.90;57.30
75738;DHT22;64356;45.638;13.764;2023-04-24T14:49:47;20.90;57.20
75738;DHT22;64356;45.638;13.764;2023-04-24T14:52:13;20.90;57.20
75738;DHT22;64356;45.638;13.764;2023-04-24T14:54:39;20.80;57.30
75738;DHT22;64356;45.638;13.764;2023-04-24T14:57:05;20.90;57.60
75738;DHT22;64356;45.638;13.764;2023-04-24T14:59:31;20.90;57.50
75738;DHT22;64356;45.638;13.764;2023-04-24T15:01:57;20.90;57.50
75738;DHT22;64356;45.638;13.764;2023-04-24T15:04:27;20.90;57.60
75738;DHT22;64356;45.638;13.764;2023-04-24T15:06:54;20.90;57.60
75738;DHT22;64356;45.638;13.764;2023-04-24T15:09:21;20.90;57.60
75738;DHT22;64356;45.638;13.764;2023-04-24T15:11:48;20.90;57.50
75738;DHT22;64356;45.638;13.764;2023-04-24T15:14:14;20.90;57.50
75738;DHT22;64356;45.638;13.764;2023-04-24T15:16:40;20.90;57.40
75738;DHT22;64356;45.638;13.764;2023-04-24T15:19:06;20.90;57.40
75738;DHT22;64356;45.638;13.764;2023-04-24T15:21:32;20.90;57.40